createdAt,value
2022-08-10T00:02:18.705Z,98.60
2022-08-10T00:04:48.467Z,98.74
2022-08-10T00:07:18.291Z,99.10
2022-08-10T00:09:50.741Z,98.60
2022-08-10T00:12:22.206Z,99.42
2022-08-10T00:15:52.559Z,99.28
2022-08-10T00:18:04.479Z,99.17
2022-08-10T00:20:34.349Z,99.19
2022-08-10T00:23:03.653Z,98.69
2022-08-10T00:25:33.504Z,98.72
2022-08-10T00:28:04.222Z,98.94
2022-08-10T00:30:34.467Z,98.84
2022-08-10T00:33:04.285Z,97.95
2022-08-10T00:35:33.612Z,98.11
2022-08-10T00:38:03.660Z,98.10
2022-08-10T00:40:35.432Z,98.52
2022-08-10T00:43:09.410Z,98.40
2022-08-10T00:45:40.352Z,98.21
2022-08-10T00:48:10.710Z,97.79
2022-08-10T00:50:40.567Z,98.15
2022-08-10T00:53:10.390Z,97.82
2022-08-10T00:57:15.244Z,98.22
2022-08-10T00:58:31.381Z,97.90
2022-08-10T01:01:01.711Z,98.17
2022-08-10T01:04:39.790Z,97.67
2022-08-10T01:06:54.484Z,97.59
2022-08-10T01:09:33.365Z,97.52
2022-08-10T01:12:47.654Z,97.80
2022-08-10T01:15:26.456Z,97.40
2022-08-10T01:18:12.656Z,97.95
2022-08-10T01:21:19.197Z,98.36
2022-08-10T01:24:00.789Z,98.75
2022-08-10T01:27:11.801Z,99.06
2022-08-10T01:30:09.395Z,99.30
2022-08-10T01:32:39.307Z,99.45
2022-08-10T01:35:36.731Z,98.96
2022-08-10T01:38:20.163Z,99.36
2022-08-10T01:41:12.506Z,99.29
2022-08-10T01:43:49.884Z,99.61
2022-08-10T01:46:24.070Z,99.37
2022-08-10T01:48:57.101Z,99.70
2022-08-10T01:52:00.596Z,99.99
2022-08-10T01:54:32.335Z,99.99
2022-08-10T01:57:04.473Z,99.99
2022-08-10T01:59:40.507Z,99.99
2022-08-10T02:02:11.569Z,99.66
2022-08-10T02:04:44.906Z,99.81
2022-08-10T02:07:18.898Z,99.95
2022-08-10T02:09:52.673Z,99.99
2022-08-10T02:12:26.121Z,99.99
2022-08-10T02:15:02.632Z,99.99
2022-08-10T02:17:58.056Z,99.99
2022-08-10T02:20:32.967Z,99.99
2022-08-10T02:23:20.293Z,99.99
2022-08-10T02:25:51.597Z,99.99
2022-08-10T02:28:30.104Z,99.99
2022-08-10T02:31:23.021Z,99.99
2022-08-10T02:33:59.538Z,99.99
2022-08-10T02:36:30.952Z,99.99
2022-08-10T02:39:06.031Z,99.99
2022-08-10T02:45:12.914Z,99.99
2022-08-10T02:45:25.560Z,99.99
2022-08-10T02:48:02.997Z,99.99
2022-08-10T02:50:38.258Z,99.99
2022-08-10T02:53:54.377Z,99.99
2022-08-10T02:56:13.560Z,99.99
2022-08-10T02:58:46.846Z,99.99
2022-08-10T03:01:22.436Z,99.99
2022-08-10T03:04:00.395Z,99.99
2022-08-10T03:06:37.246Z,99.99
2022-08-10T03:09:11.118Z,99.99
2022-08-10T03:12:37.293Z,99.99
2022-08-10T03:14:35.574Z,99.99
2022-08-10T03:17:07.269Z,99.99
2022-08-10T03:20:35.453Z,99.99
2022-08-10T03:22:29.597Z,99.99
2022-08-10T03:25:01.051Z,99.99
2022-08-10T03:27:32.031Z,99.99
2022-08-10T03:30:29.784Z,99.99
2022-08-10T03:32:54.673Z,99.99
2022-08-10T03:35:25.786Z,99.99
2022-08-10T03:37:59.735Z,99.99
2022-08-10T03:40:45.990Z,99.99
2022-08-10T03:43:23.640Z,99.99
2022-08-10T03:45:56.681Z,99.99
2022-08-10T03:48:44.623Z,99.99
2022-08-10T03:51:21.430Z,99.99
2022-08-10T03:54:05.524Z,99.99
2022-08-10T03:56:39.231Z,99.99
2022-08-10T03:59:12.451Z,99.99
2022-08-10T04:02:46.488Z,99.99
2022-08-10T04:04:36.582Z,99.99
2022-08-10T04:07:07.081Z,99.99
2022-08-10T04:09:53.475Z,99.99
2022-08-10T04:12:26.085Z,99.99
2022-08-10T04:14:56.229Z,99.99
2022-08-10T04:18:05.168Z,99.99
2022-08-10T04:20:34.936Z,99.99
2022-08-10T04:23:13.816Z,99.99
2022-08-10T04:25:44.251Z,99.99
2022-08-10T04:28:14.495Z,99.99
2022-08-10T04:30:46.198Z,99.99
2022-08-10T04:33:19.358Z,99.99
2022-08-10T04:35:50.997Z,99.99
2022-08-10T04:38:22.786Z,99.99
2022-08-10T04:40:53.408Z,99.99
2022-08-10T04:43:23.679Z,99.99
2022-08-10T04:45:53.415Z,99.99
2022-08-10T04:48:40.700Z,99.99
2022-08-10T04:51:19.157Z,99.99
2022-08-10T04:54:03.845Z,99.99
2022-08-10T04:56:41.138Z,99.99
2022-08-10T04:59:12.677Z,99.99
2022-08-10T05:02:29.351Z,99.99
2022-08-10T05:04:37.449Z,99.99
2022-08-10T05:07:18.608Z,99.99
2022-08-10T05:10:02.276Z,99.99
2022-08-10T05:12:41.044Z,99.99
2022-08-10T05:15:13.719Z,99.99
2022-08-10T05:18:08.799Z,99.99
2022-08-10T05:20:34.618Z,99.99
2022-08-10T05:23:04.376Z,99.99
2022-08-10T05:25:38.093Z,99.99
2022-08-10T05:28:08.596Z,99.99
2022-08-10T05:30:38.538Z,99.99
2022-08-10T05:33:09.010Z,99.99
2022-08-10T05:35:55.510Z,99.99
2022-08-10T05:38:29.456Z,99.99
2022-08-10T05:41:01.228Z,99.99
2022-08-10T05:43:31.172Z,99.99
2022-08-10T05:46:17.339Z,99.99
2022-08-10T05:48:56.678Z,99.99
2022-08-10T05:51:29.316Z,99.99
2022-08-10T05:54:05.108Z,99.99
2022-08-10T05:56:55.902Z,99.99
2022-08-10T06:00:33.082Z,99.99
2022-08-10T06:02:35.685Z,99.99
2022-08-10T06:05:11.687Z,99.99
2022-08-10T06:08:18.123Z,99.99
2022-08-10T06:12:16.537Z,99.99
2022-08-10T06:14:13.876Z,99.99
2022-08-10T06:16:47.675Z,99.99
2022-08-10T06:19:18.695Z,99.99
2022-08-10T06:22:01.052Z,99.99
2022-08-10T06:24:32.786Z,99.99
2022-08-10T06:27:02.834Z,99.99
2022-08-10T06:29:35.229Z,99.99
2022-08-10T06:32:07.166Z,99.99
2022-08-10T06:34:52.276Z,99.99
2022-08-10T06:37:27.090Z,99.99
2022-08-10T06:39:57.579Z,99.99
2022-08-10T06:42:53.778Z,99.99
2022-08-10T06:45:29.589Z,99.99
2022-08-10T06:48:33.461Z,99.99
2022-08-10T06:51:19.309Z,99.99
2022-08-10T06:53:55.057Z,99.99
2022-08-10T06:56:36.745Z,99.99
2022-08-10T06:59:21.942Z,99.99
2022-08-10T07:02:02.312Z,99.99
2022-08-10T07:04:54.097Z,99.99
2022-08-10T07:07:28.812Z,99.99
2022-08-10T07:10:02.137Z,99.99
2022-08-10T07:12:33.388Z,99.99
2022-08-10T07:15:04.806Z,99.99
2022-08-10T07:17:39.248Z,99.99
2022-08-10T07:20:11.472Z,99.99
2022-08-10T07:23:27.113Z,99.99
2022-08-10T07:25:34.425Z,99.99
2022-08-10T07:28:05.308Z,99.99
2022-08-10T07:30:42.393Z,99.99
2022-08-10T07:33:19.903Z,99.99
2022-08-10T07:35:51.537Z,99.99
2022-08-10T07:38:28.292Z,99.99
2022-08-10T07:41:04.351Z,99.99
2022-08-10T07:43:36.599Z,99.99
2022-08-10T07:46:11.011Z,99.99
2022-08-10T07:48:52.817Z,99.99
2022-08-10T07:51:25.052Z,99.99
2022-08-10T07:53:57.049Z,99.99
2022-08-10T07:56:47.990Z,99.99
2022-08-10T07:59:24.090Z,99.99
2022-08-10T08:01:57.164Z,99.99
2022-08-10T08:04:28.177Z,99.99
2022-08-10T08:07:01.179Z,99.99
2022-08-10T08:09:32.909Z,99.99
2022-08-10T08:12:05.116Z,99.99
2022-08-10T08:14:36.527Z,99.99
2022-08-10T08:17:07.702Z,99.99
2022-08-10T08:19:46.058Z,99.99
2022-08-10T08:24:09.124Z,99.99
2022-08-10T08:25:18.119Z,99.99
2022-08-10T08:27:53.994Z,99.99
2022-08-10T08:30:26.748Z,99.99
2022-08-10T08:33:00.187Z,99.99
2022-08-10T08:35:31.366Z,99.99
2022-08-10T08:38:33.237Z,99.99
2022-08-10T08:41:18.914Z,99.99
2022-08-10T08:44:23.355Z,99.99
2022-08-10T08:48:02.339Z,99.99
2022-08-10T08:50:16.988Z,99.99
2022-08-10T08:52:58.269Z,99.99
2022-08-10T08:56:04.022Z,99.99
2022-08-10T08:59:13.413Z,99.99
2022-08-10T09:01:55.135Z,99.99
2022-08-10T09:04:30.836Z,99.99
2022-08-10T09:07:59.114Z,99.99
2022-08-10T09:10:42.196Z,99.99
2022-08-10T09:13:27.814Z,99.99
2022-08-10T09:16:23.021Z,99.99
2022-08-10T09:19:35.682Z,99.99
2022-08-10T09:22:19.549Z,99.99
2022-08-10T09:25:22.489Z,99.99
2022-08-10T09:28:04.559Z,99.99
2022-08-10T09:36:23.163Z,99.99
2022-08-10T09:38:03.357Z,99.99
2022-08-10T09:41:09.119Z,99.99
2022-08-10T09:44:10.879Z,99.99
2022-08-10T09:46:59.244Z,99.99
2022-08-10T09:49:59.792Z,99.99
2022-08-10T09:52:58.676Z,99.99
2022-08-10T09:56:17.109Z,99.99
2022-08-10T10:00:00.217Z,99.99
2022-08-10T10:02:23.609Z,99.99
2022-08-10T10:05:30.617Z,99.99
2022-08-10T10:08:06.293Z,99.99
2022-08-10T10:10:57.573Z,99.99
2022-08-10T10:14:01.700Z,99.99
2022-08-10T10:17:04.472Z,99.99
2022-08-10T10:19:49.786Z,99.99
2022-08-10T10:22:44.958Z,99.99
2022-08-10T10:25:50.737Z,99.99
2022-08-10T10:29:19.635Z,99.99
2022-08-10T10:31:52.014Z,99.99
2022-08-10T10:34:49.688Z,99.99
2022-08-10T10:38:01.557Z,99.99
2022-08-10T10:40:16.703Z,99.99
2022-08-10T10:43:02.118Z,99.99
2022-08-10T10:45:50.113Z,99.99
2022-08-10T10:48:29.384Z,99.99
2022-08-10T10:51:25.404Z,99.99
2022-08-10T10:54:12.255Z,99.99
2022-08-10T10:57:05.634Z,99.99
2022-08-10T11:00:03.590Z,99.99
2022-08-10T11:02:50.803Z,99.99
2022-08-10T11:05:42.216Z,99.99
2022-08-10T11:08:41.089Z,99.99
2022-08-10T11:11:59.889Z,99.99
2022-08-10T11:14:29.676Z,99.99
2022-08-10T11:17:13.511Z,99.99
2022-08-10T11:20:04.007Z,99.99
2022-08-10T11:22:58.715Z,99.99
2022-08-10T11:25:40.325Z,99.99
2022-08-10T11:28:21.660Z,99.99
2022-08-10T11:30:58.446Z,99.99
2022-08-10T11:34:11.522Z,99.99
2022-08-10T11:36:51.018Z,99.99
2022-08-10T11:39:57.712Z,99.99
2022-08-10T11:42:49.187Z,99.99
2022-08-10T11:45:32.593Z,99.99
2022-08-10T11:48:52.953Z,99.99
2022-08-10T11:51:10.481Z,99.99
2022-08-10T11:54:12.358Z,99.98
2022-08-10T11:56:58.494Z,99.99
2022-08-10T11:59:58.098Z,99.94
2022-08-10T12:02:37.689Z,99.86
2022-08-10T12:05:13.319Z,99.99
2022-08-10T12:09:17.413Z,99.92
2022-08-10T12:10:40.850Z,99.91
2022-08-10T12:13:25.381Z,99.99
2022-08-10T12:16:11.483Z,99.99
2022-08-10T12:18:53.502Z,99.81
2022-08-10T12:21:53.842Z,99.70
2022-08-10T12:24:27.505Z,99.37
2022-08-10T12:27:18.302Z,98.91
2022-08-10T12:30:04.936Z,99.11
2022-08-10T12:32:34.943Z,98.68
2022-08-10T12:36:01.645Z,98.87
2022-08-10T12:39:03.240Z,98.71
2022-08-10T12:41:44.553Z,98.34
2022-08-10T12:44:21.963Z,98.20
2022-08-10T12:47:14.403Z,97.32
2022-08-10T12:50:23.793Z,96.02
2022-08-10T12:52:52.158Z,96.87
2022-08-10T12:55:24.261Z,96.46
2022-08-10T12:57:57.344Z,96.56
2022-08-10T13:00:41.607Z,96.30
2022-08-10T13:04:21.915Z,96.30
2022-08-10T13:06:17.836Z,95.97
2022-08-10T13:09:07.286Z,96.71
2022-08-10T13:12:36.796Z,96.47
2022-08-10T13:14:59.327Z,95.51
2022-08-10T13:17:39.496Z,95.44
2022-08-10T13:20:38.343Z,94.31
2022-08-10T13:23:16.024Z,94.09
2022-08-10T13:25:49.945Z,93.24
2022-08-10T13:28:35.790Z,91.97
2022-08-10T13:31:17.022Z,93.31
2022-08-10T13:34:39.592Z,93.37
2022-08-10T13:36:51.216Z,91.82
2022-08-10T13:39:26.139Z,92.44
2022-08-10T13:41:57.807Z,91.19
2022-08-10T13:44:39.813Z,91.67
2022-08-10T13:47:13.631Z,90.51
2022-08-10T13:49:53.646Z,92.29
2022-08-10T13:52:27.739Z,91.87
2022-08-10T13:55:01.731Z,90.76
2022-08-10T13:57:38.379Z,85.76
2022-08-10T14:00:35.506Z,85.26
2022-08-10T14:03:12.836Z,85.17
2022-08-10T14:05:52.246Z,84.42
2022-08-10T14:08:27.493Z,84.84
2022-08-10T14:11:11.567Z,81.69
2022-08-10T14:13:53.020Z,84.84
2022-08-10T14:16:24.051Z,82.85
2022-08-10T14:19:01.916Z,83.21
2022-08-10T14:21:32.032Z,82.87
2022-08-10T14:24:02.313Z,83.89
2022-08-10T14:26:33.434Z,82.73
2022-08-10T14:29:18.873Z,80.91
2022-08-10T14:32:01.507Z,78.81
2022-08-10T14:36:05.072Z,78.57
2022-08-10T14:37:49.562Z,84.48
2022-08-10T14:40:29.809Z,81.66
2022-08-10T14:43:08.171Z,83.32
2022-08-10T14:45:40.932Z,82.47
2022-08-10T14:48:19.045Z,82.27
2022-08-10T14:50:59.365Z,81.02
2022-08-10T14:53:35.599Z,78.33
2022-08-10T14:56:13.518Z,77.03
2022-08-10T14:58:59.101Z,76.84
2022-08-10T15:02:00.721Z,75.40
2022-08-10T15:04:30.707Z,76.28
2022-08-10T15:07:24.157Z,76.87
2022-08-10T15:10:01.113Z,74.18
2022-08-10T15:12:36.548Z,75.37
2022-08-10T15:15:09.855Z,73.51
2022-08-10T15:17:45.722Z,72.09
2022-08-10T15:20:22.638Z,72.31
2022-08-10T15:22:55.537Z,68.66
2022-08-10T15:25:27.144Z,67.57
2022-08-10T15:28:11.760Z,64.85
2022-08-10T15:30:53.167Z,66.53
2022-08-10T15:34:06.851Z,62.84
2022-08-10T15:37:35.925Z,67.17
2022-08-10T15:40:24.087Z,70.97
2022-08-10T15:42:58.393Z,68.77
2022-08-10T15:45:29.170Z,71.62
2022-08-10T15:48:06.155Z,69.10
2022-08-10T15:50:42.848Z,67.66
2022-08-10T15:53:15.808Z,63.90
2022-08-10T15:55:58.371Z,63.62
2022-08-10T15:58:40.451Z,64.57
2022-08-10T16:02:14.243Z,64.20
2022-08-10T16:04:09.062Z,64.41
2022-08-10T16:07:10.752Z,61.41
2022-08-10T16:10:22.695Z,64.98
2022-08-10T16:13:00.099Z,65.40
2022-08-10T16:15:33.073Z,66.31
2022-08-10T16:18:09.837Z,66.96
2022-08-10T16:21:01.609Z,68.84
2022-08-10T16:23:35.530Z,70.89
2022-08-10T16:26:14.893Z,70.58
2022-08-10T16:29:01.308Z,66.12
2022-08-10T16:31:36.025Z,60.83
2022-08-10T16:34:15.268Z,60.97
2022-08-10T16:37:08.420Z,66.13
2022-08-10T16:40:00.127Z,67.91
2022-08-10T16:42:34.012Z,67.13
2022-08-10T16:45:13.502Z,64.96
2022-08-10T16:47:52.063Z,66.96
2022-08-10T16:50:39.814Z,63.15
2022-08-10T16:53:14.300Z,62.82
2022-08-10T16:55:57.798Z,59.82
2022-08-10T16:58:34.062Z,61.10
2022-08-10T17:01:13.001Z,58.82
2022-08-10T17:04:08.145Z,54.06
2022-08-10T17:07:00.595Z,54.02
2022-08-10T17:09:36.674Z,52.74
2022-08-10T17:12:12.610Z,55.32
2022-08-10T17:14:44.489Z,55.86
2022-08-10T17:17:21.253Z,58.68
2022-08-10T17:19:53.265Z,56.11
2022-08-10T17:22:26.552Z,59.33
2022-08-10T17:25:09.250Z,59.79
2022-08-10T17:28:05.224Z,57.13
2022-08-10T17:30:36.925Z,52.55
2022-08-10T17:33:29.239Z,58.82
2022-08-10T17:36:05.141Z,60.22
2022-08-10T17:38:39.415Z,59.80
2022-08-10T17:41:14.168Z,58.61
2022-08-10T17:44:02.806Z,55.46
2022-08-10T17:46:42.803Z,53.13
2022-08-10T17:49:15.295Z,55.19
2022-08-10T17:51:52.147Z,55.27
2022-08-10T17:54:45.380Z,61.44
2022-08-10T17:57:22.399Z,62.57
2022-08-10T17:59:55.297Z,58.70
2022-08-10T18:02:28.420Z,56.27
2022-08-10T18:05:03.980Z,58.27
2022-08-10T18:07:36.682Z,60.48
2022-08-10T18:10:10.889Z,59.30
2022-08-10T18:12:54.645Z,55.96
2022-08-10T18:15:28.498Z,56.55
2022-08-10T18:18:02.855Z,52.54
2022-08-10T18:20:38.919Z,53.88
2022-08-10T18:23:09.716Z,56.43
2022-08-10T18:25:45.233Z,60.38
2022-08-10T18:28:20.635Z,63.75
2022-08-10T18:30:56.221Z,66.85
2022-08-10T18:33:36.980Z,69.05
2022-08-10T18:36:09.444Z,59.06
2022-08-10T18:38:41.716Z,48.13
2022-08-10T18:41:16.975Z,44.90
2022-08-10T18:44:08.412Z,41.86
2022-08-10T18:46:57.601Z,42.23
2022-08-10T18:49:41.470Z,55.65
2022-08-10T18:52:16.465Z,62.39
2022-08-10T18:54:49.947Z,56.10
2022-08-10T18:57:36.926Z,47.43
2022-08-10T19:00:14.889Z,44.26
2022-08-10T19:03:18.523Z,43.93
2022-08-10T19:06:12.664Z,43.18
2022-08-10T19:08:48.994Z,37.34
2022-08-10T19:11:42.778Z,39.70
2022-08-10T19:14:32.945Z,40.30
2022-08-10T19:17:23.707Z,42.37
2022-08-10T19:20:14.492Z,47.89
2022-08-10T19:22:50.100Z,55.00
2022-08-10T19:26:37.803Z,60.50
2022-08-10T19:28:49.016Z,65.39
2022-08-10T19:31:43.909Z,66.37
2022-08-10T19:34:40.436Z,66.82
2022-08-10T19:37:32.364Z,67.42
2022-08-10T19:40:05.728Z,67.21
2022-08-10T19:42:49.402Z,69.03
2022-08-10T19:46:01.203Z,68.19
2022-08-10T19:48:47.232Z,68.01
2022-08-10T19:51:55.600Z,71.17
2022-08-10T19:54:39.498Z,70.94
2022-08-10T19:57:24.113Z,71.61
2022-08-10T20:00:22.782Z,72.15
2022-08-10T20:02:57.196Z,70.90
2022-08-10T20:05:28.164Z,73.27
2022-08-10T20:08:11.161Z,72.33
2022-08-10T20:11:11.694Z,71.23
2022-08-10T20:14:23.561Z,71.36
2022-08-10T20:17:44.819Z,69.28
2022-08-10T20:20:31.295Z,72.40
2022-08-10T20:23:17.500Z,73.38
2022-08-10T20:26:12.655Z,75.41
2022-08-10T20:28:54.902Z,75.63
2022-08-10T20:31:34.440Z,78.42
2022-08-10T20:34:11.141Z,81.43
2022-08-10T20:36:50.095Z,74.86
2022-08-10T20:40:02.008Z,79.55
2022-08-10T20:42:49.898Z,82.17
2022-08-10T20:45:26.357Z,82.52
2022-08-10T20:48:32.746Z,80.78
2022-08-10T20:51:08.523Z,82.27
2022-08-10T20:54:02.178Z,86.00
2022-08-10T20:56:47.017Z,86.26
2022-08-10T20:59:23.485Z,88.19
2022-08-10T21:02:51.274Z,85.93
2022-08-10T21:05:23.968Z,85.10
2022-08-10T21:08:20.953Z,85.90
2022-08-10T21:11:00.379Z,87.26
2022-08-10T21:13:55.631Z,87.46
2022-08-10T21:16:52.258Z,87.73
2022-08-10T21:19:40.122Z,89.62
2022-08-10T21:22:34.272Z,89.10
2022-08-10T21:25:15.666Z,88.72
2022-08-10T21:28:33.410Z,88.69
2022-08-10T21:31:22.067Z,89.31
2022-08-10T21:34:19.390Z,88.27
2022-08-10T21:37:07.988Z,88.70
2022-08-10T21:39:52.812Z,87.13
2022-08-10T21:43:02.641Z,86.39
2022-08-10T21:46:24.476Z,86.75
2022-08-10T21:49:36.924Z,88.04
2022-08-10T21:52:40.615Z,88.57
2022-08-10T21:55:58.137Z,89.72
2022-08-10T21:58:53.691Z,89.87
2022-08-10T22:02:06.983Z,89.03
2022-08-10T22:04:54.927Z,84.94
2022-08-10T22:07:45.825Z,89.72
2022-08-10T22:10:38.696Z,89.75
2022-08-10T22:13:28.371Z,90.40
2022-08-10T22:16:28.697Z,90.46
2022-08-10T22:19:20.343Z,89.62
2022-08-10T22:22:31.351Z,89.21
2022-08-10T22:25:46.702Z,87.66
2022-08-10T22:28:40.331Z,87.93
2022-08-10T22:31:39.924Z,85.87
2022-08-10T22:34:39.615Z,88.71
2022-08-10T22:37:56.241Z,88.01
2022-08-10T22:40:44.908Z,88.20
2022-08-10T22:43:43.418Z,88.70
2022-08-10T22:46:43.120Z,89.07
2022-08-10T22:49:13.236Z,89.55
2022-08-10T22:52:04.003Z,89.55
2022-08-10T22:55:11.022Z,90.53
2022-08-10T22:58:09.941Z,90.31
2022-08-10T23:00:40.609Z,89.61
2022-08-10T23:03:21.798Z,89.76
2022-08-10T23:05:54.344Z,89.54
2022-08-10T23:08:33.761Z,90.61
2022-08-10T23:11:09.865Z,90.93
2022-08-10T23:13:45.833Z,90.92
2022-08-10T23:16:40.274Z,91.50
2022-08-10T23:19:32.860Z,92.01
2022-08-10T23:22:09.768Z,92.45
2022-08-10T23:25:22.907Z,91.89
2022-08-10T23:28:12.268Z,92.34
2022-08-10T23:30:45.247Z,90.54
2022-08-10T23:33:38.109Z,92.75
2022-08-10T23:36:34.160Z,93.25
2022-08-10T23:39:26.747Z,94.05
2022-08-10T23:42:06.364Z,94.65
2022-08-10T23:44:43.048Z,95.03
2022-08-10T23:47:15.753Z,95.17
2022-08-10T23:49:47.873Z,95.42
2022-08-10T23:52:21.941Z,96.25
2022-08-10T23:54:57.029Z,96.23
2022-08-10T23:57:29.356Z,96.84
